sensor_id;sensor_type;location;lat;lon;timestamp;P1;durP1;ratioP1;P2;durP2;ratioP2
7545;SDS011;3814;51.454;12.616;2023-06-10T00:01:46;7.32;;;3.35;;
7545;SDS011;3814;51.454;12.616;2023-06-10T00:04:14;6.38;;;3.60;;
7545;SDS011;3814;51.454;12.616;2023-06-10T00:06:41;7.03;;;3.30;;
7545;SDS011;3814;51.454;12.616;2023-06-10T00:09:06;7.38;;;3.50;;
7545;SDS011;3814;51.454;12.616;2023-06-10T00:11:35;6.57;;;3.53;;
7545;SDS011;3814;51.454;12.616;2023-06-10T00:14:01;5.93;;;3.33;;
7545;SDS011;3814;51.454;12.616;2023-06-10T00:16:26;6.43;;;3.70;;
7545;SDS011;3814;51.454;12.616;2023-06-10T00:18:52;8.48;;;3.80;;
7545;SDS011;3814;51.454;12.616;2023-06-10T00:21:17;6.00;;;3.58;;
7545;SDS011;3814;51.454;12.616;2023-06-10T00:23:44;7.43;;;3.78;;
7545;SDS011;3814;51.454;12.616;2023-06-10T00:26:09;8.60;;;3.60;;
7545;SDS011;3814;51.454;12.616;2023-06-10T00:28:34;6.70;;;3.50;;
7545;SDS011;3814;51.454;12.616;2023-06-10T00:31:00;6.80;;;3.47;;
7545;SDS011;3814;51.454;12.616;2023-06-10T00:33:26;6.30;;;3.67;;
7545;SDS011;3814;51.454;12.616;2023-06-10T00:35:51;8.18;;;3.72;;
7545;SDS011;3814;51.454;12.616;2023-06-10T00:38:16;6.57;;;3.60;;
7545;SDS011;3814;51.454;12.616;2023-06-10T00:40:42;8.90;;;3.67;;
7545;SDS011;3814;51.454;12.616;2023-06-10T00:43:07;8.48;;;3.85;;
7545;SDS011;3814;51.454;12.616;2023-06-10T00:45:33;9.15;;;3.70;;
7545;SDS011;3814;51.454;12.616;2023-06-10T00:47:59;7.68;;;3.63;;
7545;SDS011;3814;51.454;12.616;2023-06-10T00:50:24;7.78;;;4.10;;
7545;SDS011;3814;51.454;12.616;2023-06-10T00:52:50;8.30;;;4.03;;
7545;SDS011;3814;51.454;12.616;2023-06-10T00:55:16;8.73;;;3.90;;
7545;SDS011;3814;51.454;12.616;2023-06-10T00:57:42;7.18;;;3.92;;
7545;SDS011;3814;51.454;12.616;2023-06-10T01:00:10;6.90;;;3.90;;
7545;SDS011;3814;51.454;12.616;2023-06-10T01:02:36;6.55;;;4.03;;
7545;SDS011;3814;51.454;12.616;2023-06-10T01:05:01;7.50;;;4.05;;
7545;SDS011;3814;51.454;12.616;2023-06-10T01:13:13;8.35;;;3.97;;
7545;SDS011;3814;51.454;12.616;2023-06-10T01:15:40;8.48;;;4.00;;
7545;SDS011;3814;51.454;12.616;2023-06-10T01:18:06;7.20;;;4.03;;
7545;SDS011;3814;51.454;12.616;2023-06-10T01:20:40;9.38;;;4.53;;
7545;SDS011;3814;51.454;12.616;2023-06-10T01:23:06;10.77;;;4.45;;
7545;SDS011;3814;51.454;12.616;2023-06-10T01:25:32;8.02;;;4.07;;
7545;SDS011;3814;51.454;12.616;2023-06-10T01:28:12;8.85;;;4.18;;
7545;SDS011;3814;51.454;12.616;2023-06-10T01:30:47;7.00;;;4.20;;
7545;SDS011;3814;51.454;12.616;2023-06-10T01:33:18;8.93;;;4.80;;
7545;SDS011;3814;51.454;12.616;2023-06-10T01:35:50;8.45;;;4.30;;
7545;SDS011;3814;51.454;12.616;2023-06-10T01:38:16;7.28;;;4.38;;
7545;SDS011;3814;51.454;12.616;2023-06-10T01:40:44;9.65;;;4.78;;
7545;SDS011;3814;51.454;12.616;2023-06-10T01:43:10;9.50;;;4.57;;
7545;SDS011;3814;51.454;12.616;2023-06-10T01:45:36;7.57;;;4.40;;
7545;SDS011;3814;51.454;12.616;2023-06-10T01:48:01;7.38;;;4.38;;
7545;SDS011;3814;51.454;12.616;2023-06-10T01:50:27;11.63;;;4.65;;
7545;SDS011;3814;51.454;12.616;2023-06-10T01:52:52;8.02;;;4.47;;
7545;SDS011;3814;51.454;12.616;2023-06-10T01:55:17;7.97;;;4.32;;
7545;SDS011;3814;51.454;12.616;2023-06-10T01:57:43;11.60;;;4.80;;
7545;SDS011;3814;51.454;12.616;2023-06-10T02:00:08;9.27;;;4.90;;
7545;SDS011;3814;51.454;12.616;2023-06-10T02:02:35;10.38;;;4.82;;
7545;SDS011;3814;51.454;12.616;2023-06-10T02:05:00;10.07;;;5.20;;
7545;SDS011;3814;51.454;12.616;2023-06-10T02:07:26;11.20;;;5.40;;
7545;SDS011;3814;51.454;12.616;2023-06-10T02:09:51;9.52;;;5.35;;
7545;SDS011;3814;51.454;12.616;2023-06-10T02:12:16;9.25;;;5.07;;
7545;SDS011;3814;51.454;12.616;2023-06-10T02:14:41;12.52;;;5.68;;
7545;SDS011;3814;51.454;12.616;2023-06-10T02:17:07;8.65;;;5.10;;
7545;SDS011;3814;51.454;12.616;2023-06-10T02:19:32;13.05;;;5.32;;
7545;SDS011;3814;51.454;12.616;2023-06-10T02:22:01;10.32;;;5.15;;
7545;SDS011;3814;51.454;12.616;2023-06-10T02:24:26;9.85;;;5.20;;
7545;SDS011;3814;51.454;12.616;2023-06-10T02:26:52;9.75;;;5.63;;
7545;SDS011;3814;51.454;12.616;2023-06-10T02:29:18;10.07;;;5.68;;
7545;SDS011;3814;51.454;12.616;2023-06-10T02:31:43;9.60;;;5.55;;
7545;SDS011;3814;51.454;12.616;2023-06-10T02:34:08;11.25;;;5.50;;
7545;SDS011;3814;51.454;12.616;2023-06-10T02:36:34;9.40;;;5.82;;
7545;SDS011;3814;51.454;12.616;2023-06-10T02:39:00;11.40;;;5.68;;
7545;SDS011;3814;51.454;12.616;2023-06-10T02:41:26;12.32;;;5.90;;
7545;SDS011;3814;51.454;12.616;2023-06-10T02:43:51;9.52;;;5.60;;
7545;SDS011;3814;51.454;12.616;2023-06-10T02:46:17;10.70;;;5.80;;
7545;SDS011;3814;51.454;12.616;2023-06-10T02:48:42;10.02;;;5.60;;
7545;SDS011;3814;51.454;12.616;2023-06-10T02:51:11;8.82;;;5.72;;
7545;SDS011;3814;51.454;12.616;2023-06-10T02:53:37;9.82;;;5.85;;
7545;SDS011;3814;51.454;12.616;2023-06-10T02:56:02;10.07;;;5.47;;
7545;SDS011;3814;51.454;12.616;2023-06-10T02:58:27;11.50;;;6.25;;
7545;SDS011;3814;51.454;12.616;2023-06-10T03:00:53;13.02;;;6.30;;
7545;SDS011;3814;51.454;12.616;2023-06-10T03:03:18;12.13;;;6.43;;
7545;SDS011;3814;51.454;12.616;2023-06-10T03:05:43;11.43;;;6.50;;
7545;SDS011;3814;51.454;12.616;2023-06-10T03:08:09;10.38;;;6.55;;
7545;SDS011;3814;51.454;12.616;2023-06-10T03:10:34;10.70;;;6.13;;
7545;SDS011;3814;51.454;12.616;2023-06-10T03:13:00;12.25;;;6.25;;
7545;SDS011;3814;51.454;12.616;2023-06-10T03:15:25;10.43;;;6.35;;
7545;SDS011;3814;51.454;12.616;2023-06-10T03:17:50;11.88;;;6.22;;
7545;SDS011;3814;51.454;12.616;2023-06-10T03:20:15;13.68;;;7.10;;
7545;SDS011;3814;51.454;12.616;2023-06-10T03:22:41;11.32;;;6.60;;
7545;SDS011;3814;51.454;12.616;2023-06-10T03:25:07;10.25;;;6.82;;
7545;SDS011;3814;51.454;12.616;2023-06-10T03:27:39;12.73;;;7.13;;
7545;SDS011;3814;51.454;12.616;2023-06-10T03:30:05;15.27;;;7.50;;
7545;SDS011;3814;51.454;12.616;2023-06-10T03:32:31;12.32;;;6.95;;
7545;SDS011;3814;51.454;12.616;2023-06-10T03:34:56;17.83;;;7.30;;
7545;SDS011;3814;51.454;12.616;2023-06-10T03:37:23;16.45;;;7.38;;
7545;SDS011;3814;51.454;12.616;2023-06-10T03:39:49;14.27;;;7.40;;
7545;SDS011;3814;51.454;12.616;2023-06-10T03:42:14;12.30;;;7.30;;
7545;SDS011;3814;51.454;12.616;2023-06-10T03:44:40;12.02;;;7.13;;
7545;SDS011;3814;51.454;12.616;2023-06-10T03:47:05;14.13;;;7.43;;
7545;SDS011;3814;51.454;12.616;2023-06-10T03:49:30;13.70;;;7.32;;
7545;SDS011;3814;51.454;12.616;2023-06-10T03:51:56;15.35;;;7.05;;
7545;SDS011;3814;51.454;12.616;2023-06-10T03:54:21;16.08;;;7.75;;
7545;SDS011;3814;51.454;12.616;2023-06-10T03:56:47;15.35;;;7.63;;
7545;SDS011;3814;51.454;12.616;2023-06-10T03:59:15;13.70;;;7.38;;
7545;SDS011;3814;51.454;12.616;2023-06-10T04:01:41;12.85;;;7.35;;
7545;SDS011;3814;51.454;12.616;2023-06-10T04:04:06;15.23;;;7.55;;
7545;SDS011;3814;51.454;12.616;2023-06-10T04:06:32;12.77;;;7.07;;
7545;SDS011;3814;51.454;12.616;2023-06-10T04:08:57;12.65;;;7.50;;
7545;SDS011;3814;51.454;12.616;2023-06-10T04:11:23;12.88;;;7.35;;
7545;SDS011;3814;51.454;12.616;2023-06-10T04:13:49;15.38;;;7.68;;
7545;SDS011;3814;51.454;12.616;2023-06-10T04:16:14;12.40;;;7.10;;
7545;SDS011;3814;51.454;12.616;2023-06-10T04:18:40;13.90;;;7.45;;
7545;SDS011;3814;51.454;12.616;2023-06-10T04:21:06;15.75;;;7.35;;
7545;SDS011;3814;51.454;12.616;2023-06-10T04:23:33;11.73;;;7.22;;
7545;SDS011;3814;51.454;12.616;2023-06-10T04:25:59;18.30;;;7.38;;
7545;SDS011;3814;51.454;12.616;2023-06-10T04:28:25;11.65;;;6.70;;
7545;SDS011;3814;51.454;12.616;2023-06-10T04:30:50;11.88;;;7.32;;
7545;SDS011;3814;51.454;12.616;2023-06-10T04:33:15;13.23;;;7.65;;
7545;SDS011;3814;51.454;12.616;2023-06-10T04:35:41;15.15;;;7.65;;
7545;SDS011;3814;51.454;12.616;2023-06-10T04:38:07;14.93;;;7.68;;
7545;SDS011;3814;51.454;12.616;2023-06-10T04:40:32;13.68;;;7.72;;
7545;SDS011;3814;51.454;12.616;2023-06-10T04:42:57;11.45;;;7.18;;
7545;SDS011;3814;51.454;12.616;2023-06-10T04:45:23;13.98;;;7.40;;
7545;SDS011;3814;51.454;12.616;2023-06-10T04:47:48;14.82;;;7.93;;
7545;SDS011;3814;51.454;12.616;2023-06-10T04:50:13;15.30;;;7.05;;
7545;SDS011;3814;51.454;12.616;2023-06-10T04:52:39;15.52;;;7.60;;
7545;SDS011;3814;51.454;12.616;2023-06-10T04:55:06;14.60;;;7.75;;
7545;SDS011;3814;51.454;12.616;2023-06-10T04:57:32;11.18;;;6.82;;
7545;SDS011;3814;51.454;12.616;2023-06-10T04:59:57;14.88;;;7.43;;
7545;SDS011;3814;51.454;12.616;2023-06-10T05:02:22;14.73;;;7.22;;
7545;SDS011;3814;51.454;12.616;2023-06-10T05:04:48;16.70;;;7.38;;
7545;SDS011;3814;51.454;12.616;2023-06-10T05:07:13;11.00;;;6.82;;
7545;SDS011;3814;51.454;12.616;2023-06-10T05:09:38;14.85;;;7.35;;
7545;SDS011;3814;51.454;12.616;2023-06-10T05:12:04;12.38;;;6.97;;
7545;SDS011;3814;51.454;12.616;2023-06-10T05:14:30;12.27;;;6.85;;
7545;SDS011;3814;51.454;12.616;2023-06-10T05:16:56;8.98;;;6.50;;
7545;SDS011;3814;51.454;12.616;2023-06-10T05:19:21;13.88;;;6.95;;
7545;SDS011;3814;51.454;12.616;2023-06-10T05:21:47;13.32;;;6.82;;
7545;SDS011;3814;51.454;12.616;2023-06-10T05:24:13;11.38;;;6.53;;
7545;SDS011;3814;51.454;12.616;2023-06-10T05:26:38;14.30;;;7.10;;
7545;SDS011;3814;51.454;12.616;2023-06-10T05:29:04;15.30;;;6.85;;
7545;SDS011;3814;51.454;12.616;2023-06-10T05:31:30;12.63;;;6.75;;
7545;SDS011;3814;51.454;12.616;2023-06-10T05:33:55;16.00;;;7.53;;
7545;SDS011;3814;51.454;12.616;2023-06-10T05:36:21;11.40;;;6.65;;
7545;SDS011;3814;51.454;12.616;2023-06-10T05:38:46;12.15;;;6.82;;
7545;SDS011;3814;51.454;12.616;2023-06-10T05:41:11;12.55;;;7.03;;
7545;SDS011;3814;51.454;12.616;2023-06-10T05:43:37;11.13;;;6.70;;
7545;SDS011;3814;51.454;12.616;2023-06-10T05:46:02;13.20;;;6.35;;
7545;SDS011;3814;51.454;12.616;2023-06-10T05:48:27;11.25;;;6.63;;
7545;SDS011;3814;51.454;12.616;2023-06-10T05:50:53;11.00;;;6.75;;
7545;SDS011;3814;51.454;12.616;2023-06-10T05:53:18;14.07;;;7.40;;
7545;SDS011;3814;51.454;12.616;2023-06-10T05:55:44;13.55;;;6.78;;
7545;SDS011;3814;51.454;12.616;2023-06-10T05:58:10;11.25;;;6.72;;
7545;SDS011;3814;51.454;12.616;2023-06-10T06:00:37;11.48;;;6.47;;
7545;SDS011;3814;51.454;12.616;2023-06-10T06:03:03;13.23;;;7.07;;
7545;SDS011;3814;51.454;12.616;2023-06-10T06:05:28;13.45;;;7.10;;
7545;SDS011;3814;51.454;12.616;2023-06-10T06:07:59;11.93;;;6.72;;
7545;SDS011;3814;51.454;12.616;2023-06-10T06:10:25;13.02;;;6.93;;
7545;SDS011;3814;51.454;12.616;2023-06-10T06:12:50;12.55;;;7.00;;
7545;SDS011;3814;51.454;12.616;2023-06-10T06:15:17;12.68;;;7.53;;
7545;SDS011;3814;51.454;12.616;2023-06-10T06:17:42;12.82;;;7.07;;
7545;SDS011;3814;51.454;12.616;2023-06-10T06:20:07;12.18;;;7.22;;
7545;SDS011;3814;51.454;12.616;2023-06-10T06:22:33;14.05;;;7.28;;
7545;SDS011;3814;51.454;12.616;2023-06-10T06:25:00;16.48;;;8.00;;
7545;SDS011;3814;51.454;12.616;2023-06-10T06:27:39;14.63;;;7.97;;
7545;SDS011;3814;51.454;12.616;2023-06-10T06:30:21;16.33;;;7.85;;
7545;SDS011;3814;51.454;12.616;2023-06-10T06:32:49;12.68;;;7.63;;
7545;SDS011;3814;51.454;12.616;2023-06-10T06:35:18;15.68;;;7.43;;
7545;SDS011;3814;51.454;12.616;2023-06-10T06:37:44;11.35;;;7.55;;
7545;SDS011;3814;51.454;12.616;2023-06-10T06:40:12;14.00;;;7.05;;
7545;SDS011;3814;51.454;12.616;2023-06-10T06:43:01;14.20;;;7.65;;
7545;SDS011;3814;51.454;12.616;2023-06-10T06:45:29;12.45;;;7.28;;
7545;SDS011;3814;51.454;12.616;2023-06-10T06:47:58;13.85;;;8.65;;
7545;SDS011;3814;51.454;12.616;2023-06-10T06:50:23;15.35;;;7.80;;
7545;SDS011;3814;51.454;12.616;2023-06-10T06:53:12;14.85;;;7.80;;
7545;SDS011;3814;51.454;12.616;2023-06-10T06:56:12;11.20;;;7.05;;
7545;SDS011;3814;51.454;12.616;2023-06-10T06:58:38;12.93;;;7.93;;
7545;SDS011;3814;51.454;12.616;2023-06-10T07:01:03;10.85;;;7.47;;
7545;SDS011;3814;51.454;12.616;2023-06-10T07:03:28;13.93;;;8.85;;
7545;SDS011;3814;51.454;12.616;2023-06-10T07:05:54;13.95;;;8.52;;
7545;SDS011;3814;51.454;12.616;2023-06-10T07:08:19;14.05;;;7.57;;
7545;SDS011;3814;51.454;12.616;2023-06-10T07:10:44;12.35;;;7.75;;
7545;SDS011;3814;51.454;12.616;2023-06-10T07:13:10;11.90;;;7.80;;
7545;SDS011;3814;51.454;12.616;2023-06-10T07:15:35;14.20;;;7.78;;
7545;SDS011;3814;51.454;12.616;2023-06-10T07:18:00;13.25;;;8.50;;
7545;SDS011;3814;51.454;12.616;2023-06-10T07:20:26;13.55;;;7.65;;
7545;SDS011;3814;51.454;12.616;2023-06-10T07:22:51;14.73;;;7.82;;
7545;SDS011;3814;51.454;12.616;2023-06-10T07:25:17;13.02;;;7.70;;
7545;SDS011;3814;51.454;12.616;2023-06-10T07:27:43;14.35;;;8.40;;
7545;SDS011;3814;51.454;12.616;2023-06-10T07:30:08;11.23;;;7.65;;
7545;SDS011;3814;51.454;12.616;2023-06-10T07:32:34;11.55;;;7.90;;
7545;SDS011;3814;51.454;12.616;2023-06-10T07:34:59;14.70;;;8.18;;
7545;SDS011;3814;51.454;12.616;2023-06-10T07:37:27;13.45;;;7.68;;
7545;SDS011;3814;51.454;12.616;2023-06-10T09:23:19;10.00;;;7.45;;
7545;SDS011;3814;51.454;12.616;2023-06-10T09:26:00;11.80;;;8.23;;
7545;SDS011;3814;51.454;12.616;2023-06-10T09:28:51;11.60;;;8.15;;
7545;SDS011;3814;51.454;12.616;2023-06-10T09:31:16;11.40;;;8.20;;
7545;SDS011;3814;51.454;12.616;2023-06-10T09:33:44;10.85;;;7.95;;
7545;SDS011;3814;51.454;12.616;2023-06-10T09:36:25;13.45;;;8.10;;
7545;SDS011;3814;51.454;12.616;2023-06-10T09:38:52;11.30;;;8.18;;
7545;SDS011;3814;51.454;12.616;2023-06-10T09:41:21;9.85;;;7.75;;
7545;SDS011;3814;51.454;12.616;2023-06-10T09:44:00;10.68;;;7.57;;
7545;SDS011;3814;51.454;12.616;2023-06-10T09:46:25;13.93;;;8.35;;
7545;SDS011;3814;51.454;12.616;2023-06-10T09:48:56;13.82;;;7.95;;
7545;SDS011;3814;51.454;12.616;2023-06-10T09:51:22;11.20;;;8.18;;
7545;SDS011;3814;51.454;12.616;2023-06-10T09:53:48;11.57;;;8.23;;
7545;SDS011;3814;51.454;12.616;2023-06-10T09:56:15;13.18;;;8.23;;
7545;SDS011;3814;51.454;12.616;2023-06-10T10:16:46;12.77;;;8.60;;
7545;SDS011;3814;51.454;12.616;2023-06-10T10:19:28;12.60;;;8.70;;
7545;SDS011;3814;51.454;12.616;2023-06-10T10:22:07;12.55;;;8.15;;
7545;SDS011;3814;51.454;12.616;2023-06-10T10:24:45;11.77;;;9.07;;
7545;SDS011;3814;51.454;12.616;2023-06-10T10:27:30;15.20;;;9.05;;
7545;SDS011;3814;51.454;12.616;2023-06-10T10:30:11;13.10;;;8.95;;
7545;SDS011;3814;51.454;12.616;2023-06-10T10:32:43;11.90;;;8.45;;
7545;SDS011;3814;51.454;12.616;2023-06-10T10:35:22;11.73;;;8.25;;
7545;SDS011;3814;51.454;12.616;2023-06-10T10:37:53;11.85;;;7.97;;
7545;SDS011;3814;51.454;12.616;2023-06-10T10:40:22;11.60;;;8.20;;
7545;SDS011;3814;51.454;12.616;2023-06-10T10:42:49;11.85;;;8.35;;
7545;SDS011;3814;51.454;12.616;2023-06-10T10:45:15;13.95;;;8.77;;
7545;SDS011;3814;51.454;12.616;2023-06-10T10:47:46;13.15;;;9.05;;
7545;SDS011;3814;51.454;12.616;2023-06-10T10:50:19;11.27;;;8.57;;
7545;SDS011;3814;51.454;12.616;2023-06-10T10:52:55;12.85;;;8.57;;
7545;SDS011;3814;51.454;12.616;2023-06-10T10:55:28;11.73;;;8.35;;
7545;SDS011;3814;51.454;12.616;2023-06-10T10:57:55;10.20;;;8.45;;
7545;SDS011;3814;51.454;12.616;2023-06-10T11:00:29;10.38;;;8.38;;
7545;SDS011;3814;51.454;12.616;2023-06-10T11:03:07;10.77;;;8.60;;
7545;SDS011;3814;51.454;12.616;2023-06-10T11:05:42;10.15;;;8.20;;
7545;SDS011;3814;51.454;12.616;2023-06-10T11:08:13;10.55;;;8.27;;
7545;SDS011;3814;51.454;12.616;2023-06-10T11:10:55;10.65;;;8.18;;
7545;SDS011;3814;51.454;12.616;2023-06-10T11:13:21;9.88;;;8.38;;
7545;SDS011;3814;51.454;12.616;2023-06-10T11:15:48;12.00;;;8.43;;
7545;SDS011;3814;51.454;12.616;2023-06-10T11:18:24;10.57;;;8.07;;
7545;SDS011;3814;51.454;12.616;2023-06-10T11:21:03;11.02;;;8.00;;
7545;SDS011;3814;51.454;12.616;2023-06-10T11:23:34;11.70;;;7.32;;
7545;SDS011;3814;51.454;12.616;2023-06-10T11:29:01;9.25;;;7.32;;
7545;SDS011;3814;51.454;12.616;2023-06-10T11:31:28;10.98;;;7.65;;
7545;SDS011;3814;51.454;12.616;2023-06-10T11:33:59;9.10;;;7.13;;
7545;SDS011;3814;51.454;12.616;2023-06-10T11:36:28;8.32;;;6.50;;
7545;SDS011;3814;51.454;12.616;2023-06-10T11:38:58;11.27;;;7.28;;
7545;SDS011;3814;51.454;12.616;2023-06-10T11:41:32;10.23;;;7.20;;
7545;SDS011;3814;51.454;12.616;2023-06-10T11:46:27;11.32;;;7.25;;
7545;SDS011;3814;51.454;12.616;2023-06-10T11:48:57;10.95;;;7.30;;
7545;SDS011;3814;51.454;12.616;2023-06-10T11:51:27;11.50;;;7.35;;
7545;SDS011;3814;51.454;12.616;2023-06-10T11:53:54;8.95;;;7.13;;
7545;SDS011;3814;51.454;12.616;2023-06-10T11:56:24;9.95;;;6.40;;
7545;SDS011;3814;51.454;12.616;2023-06-10T11:59:03;8.77;;;6.75;;
7545;SDS011;3814;51.454;12.616;2023-06-10T12:01:32;11.23;;;7.20;;
7545;SDS011;3814;51.454;12.616;2023-06-10T12:04:09;7.82;;;6.07;;
7545;SDS011;3814;51.454;12.616;2023-06-10T12:06:39;8.90;;;4.70;;
7545;SDS011;3814;51.454;12.616;2023-06-10T12:09:06;8.55;;;4.32;;
7545;SDS011;3814;51.454;12.616;2023-06-10T12:11:40;7.55;;;3.95;;
7545;SDS011;3814;51.454;12.616;2023-06-10T12:14:07;9.73;;;4.32;;
7545;SDS011;3814;51.454;12.616;2023-06-10T12:16:34;5.65;;;4.43;;
7545;SDS011;3814;51.454;12.616;2023-06-10T12:19:03;6.30;;;4.55;;
7545;SDS011;3814;51.454;12.616;2023-06-10T12:21:32;7.38;;;4.68;;
7545;SDS011;3814;51.454;12.616;2023-06-10T12:24:08;7.95;;;5.30;;
7545;SDS011;3814;51.454;12.616;2023-06-10T12:29:22;9.65;;;5.93;;
7545;SDS011;3814;51.454;12.616;2023-06-10T12:31:59;8.85;;;6.18;;
7545;SDS011;3814;51.454;12.616;2023-06-10T12:37:38;9.02;;;6.40;;
7545;SDS011;3814;51.454;12.616;2023-06-10T12:40:05;11.25;;;6.35;;
7545;SDS011;3814;51.454;12.616;2023-06-10T12:42:31;11.27;;;6.55;;
7545;SDS011;3814;51.454;12.616;2023-06-10T12:44:59;9.93;;;6.55;;
7545;SDS011;3814;51.454;12.616;2023-06-10T12:47:30;9.25;;;6.45;;
7545;SDS011;3814;51.454;12.616;2023-06-10T12:49:57;9.50;;;6.78;;
7545;SDS011;3814;51.454;12.616;2023-06-10T12:52:24;9.30;;;6.82;;
7545;SDS011;3814;51.454;12.616;2023-06-10T12:54:49;8.95;;;6.70;;
7545;SDS011;3814;51.454;12.616;2023-06-10T12:57:15;10.40;;;7.07;;
7545;SDS011;3814;51.454;12.616;2023-06-10T12:59:41;9.07;;;6.82;;
7545;SDS011;3814;51.454;12.616;2023-06-10T13:02:10;9.38;;;6.72;;
7545;SDS011;3814;51.454;12.616;2023-06-10T13:04:35;9.73;;;6.47;;
7545;SDS011;3814;51.454;12.616;2023-06-10T13:07:01;9.20;;;6.70;;
7545;SDS011;3814;51.454;12.616;2023-06-10T13:09:26;8.25;;;5.88;;
7545;SDS011;3814;51.454;12.616;2023-06-10T13:11:51;9.25;;;6.53;;
7545;SDS011;3814;51.454;12.616;2023-06-10T13:14:17;9.77;;;6.70;;
7545;SDS011;3814;51.454;12.616;2023-06-10T13:16:43;6.72;;;5.57;;
7545;SDS011;3814;51.454;12.616;2023-06-10T13:19:09;8.40;;;5.68;;
7545;SDS011;3814;51.454;12.616;2023-06-10T13:21:34;9.77;;;5.65;;
7545;SDS011;3814;51.454;12.616;2023-06-10T13:24:00;7.57;;;5.60;;
7545;SDS011;3814;51.454;12.616;2023-06-10T13:26:25;6.32;;;4.65;;
7545;SDS011;3814;51.454;12.616;2023-06-10T13:28:51;7.95;;;4.75;;
7545;SDS011;3814;51.454;12.616;2023-06-10T13:31:16;5.88;;;4.15;;
7545;SDS011;3814;51.454;12.616;2023-06-10T13:33:43;7.05;;;4.10;;
7545;SDS011;3814;51.454;12.616;2023-06-10T13:36:08;6.82;;;4.50;;
7545;SDS011;3814;51.454;12.616;2023-06-10T13:38:34;7.82;;;4.60;;
7545;SDS011;3814;51.454;12.616;2023-06-10T13:40:59;9.10;;;4.22;;
7545;SDS011;3814;51.454;12.616;2023-06-10T13:43:24;6.78;;;4.05;;
7545;SDS011;3814;51.454;12.616;2023-06-10T13:45:50;7.75;;;4.78;;
7545;SDS011;3814;51.454;12.616;2023-06-10T13:48:15;6.47;;;4.60;;
7545;SDS011;3814;51.454;12.616;2023-06-10T13:50:40;6.38;;;4.40;;
7545;SDS011;3814;51.454;12.616;2023-06-10T13:53:10;7.63;;;4.40;;
7545;SDS011;3814;51.454;12.616;2023-06-10T13:55:35;6.82;;;4.50;;
7545;SDS011;3814;51.454;12.616;2023-06-10T13:58:00;7.25;;;4.40;;
7545;SDS011;3814;51.454;12.616;2023-06-10T14:00:26;5.47;;;4.53;;
7545;SDS011;3814;51.454;12.616;2023-06-10T14:02:52;8.65;;;4.40;;
7545;SDS011;3814;51.454;12.616;2023-06-10T14:05:17;7.85;;;4.60;;
7545;SDS011;3814;51.454;12.616;2023-06-10T14:07:43;6.30;;;4.40;;
7545;SDS011;3814;51.454;12.616;2023-06-10T14:10:08;7.70;;;4.22;;
7545;SDS011;3814;51.454;12.616;2023-06-10T14:12:34;5.50;;;4.15;;
7545;SDS011;3814;51.454;12.616;2023-06-10T14:15:00;5.95;;;3.83;;
7545;SDS011;3814;51.454;12.616;2023-06-10T14:17:25;4.97;;;3.63;;
7545;SDS011;3814;51.454;12.616;2023-06-10T14:19:50;6.18;;;3.90;;
7545;SDS011;3814;51.454;12.616;2023-06-10T14:22:16;4.63;;;3.60;;
7545;SDS011;3814;51.454;12.616;2023-06-10T14:24:41;6.10;;;4.00;;
7545;SDS011;3814;51.454;12.616;2023-06-10T14:27:06;5.10;;;3.67;;
7545;SDS011;3814;51.454;12.616;2023-06-10T14:29:32;4.80;;;3.70;;
7545;SDS011;3814;51.454;12.616;2023-06-10T14:31:58;5.53;;;3.67;;
7545;SDS011;3814;51.454;12.616;2023-06-10T14:34:24;7.82;;;4.47;;
7545;SDS011;3814;51.454;12.616;2023-06-10T14:36:53;5.68;;;4.47;;
7545;SDS011;3814;51.454;12.616;2023-06-10T14:39:19;5.75;;;4.60;;
7545;SDS011;3814;51.454;12.616;2023-06-10T14:41:44;5.60;;;4.70;;
7545;SDS011;3814;51.454;12.616;2023-06-10T14:44:09;7.45;;;5.32;;
7545;SDS011;3814;51.454;12.616;2023-06-10T14:46:36;7.80;;;5.03;;
7545;SDS011;3814;51.454;12.616;2023-06-10T14:49:01;7.22;;;4.90;;
7545;SDS011;3814;51.454;12.616;2023-06-10T14:51:27;5.97;;;4.78;;
7545;SDS011;3814;51.454;12.616;2023-06-10T14:53:52;5.63;;;4.78;;
7545;SDS011;3814;51.454;12.616;2023-06-10T14:56:18;8.43;;;5.57;;
7545;SDS011;3814;51.454;12.616;2023-06-10T14:58:43;6.95;;;5.50;;
7545;SDS011;3814;51.454;12.616;2023-06-10T15:01:10;7.38;;;5.10;;
7545;SDS011;3814;51.454;12.616;2023-06-10T15:03:35;8.25;;;5.13;;
7545;SDS011;3814;51.454;12.616;2023-06-10T22:06:48;11.18;;;8.10;;
7545;SDS011;3814;51.454;12.616;2023-06-10T22:09:24;12.57;;;7.88;;
7545;SDS011;3814;51.454;12.616;2023-06-10T22:11:58;12.90;;;7.95;;
7545;SDS011;3814;51.454;12.616;2023-06-10T22:14:25;10.45;;;8.00;;
7545;SDS011;3814;51.454;12.616;2023-06-10T22:16:53;11.80;;;7.85;;
7545;SDS011;3814;51.454;12.616;2023-06-10T22:19:52;10.27;;;7.63;;
7545;SDS011;3814;51.454;12.616;2023-06-10T22:22:44;11.90;;;8.10;;
7545;SDS011;3814;51.454;12.616;2023-06-10T22:25:25;11.48;;;7.03;;
7545;SDS011;3814;51.454;12.616;2023-06-10T22:27:50;10.40;;;7.38;;
7545;SDS011;3814;51.454;12.616;2023-06-10T22:30:15;10.90;;;7.03;;
7545;SDS011;3814;51.454;12.616;2023-06-10T22:32:40;10.63;;;7.00;;
7545;SDS011;3814;51.454;12.616;2023-06-10T22:35:06;10.32;;;6.72;;
7545;SDS011;3814;51.454;12.616;2023-06-10T22:37:32;10.45;;;6.68;;
7545;SDS011;3814;51.454;12.616;2023-06-10T22:39:58;9.43;;;6.40;;
7545;SDS011;3814;51.454;12.616;2023-06-10T22:42:24;10.45;;;6.28;;
7545;SDS011;3814;51.454;12.616;2023-06-10T22:44:49;9.85;;;6.60;;
7545;SDS011;3814;51.454;12.616;2023-06-10T22:47:15;11.93;;;6.90;;
7545;SDS011;3814;51.454;12.616;2023-06-10T22:49:41;11.13;;;7.00;;
7545;SDS011;3814;51.454;12.616;2023-06-10T22:52:07;9.77;;;6.18;;
7545;SDS011;3814;51.454;12.616;2023-06-10T22:54:32;9.40;;;6.47;;
7545;SDS011;3814;51.454;12.616;2023-06-10T22:56:58;12.68;;;6.38;;
7545;SDS011;3814;51.454;12.616;2023-06-10T22:59:24;8.93;;;6.35;;
7545;SDS011;3814;51.454;12.616;2023-06-10T23:01:50;10.82;;;6.82;;
7545;SDS011;3814;51.454;12.616;2023-06-10T23:04:15;11.95;;;6.93;;
7545;SDS011;3814;51.454;12.616;2023-06-10T23:06:40;11.40;;;7.05;;
7545;SDS011;3814;51.454;12.616;2023-06-10T23:09:06;11.40;;;6.70;;
7545;SDS011;3814;51.454;12.616;2023-06-10T23:11:31;13.00;;;7.32;;
7545;SDS011;3814;51.454;12.616;2023-06-10T23:13:56;10.73;;;6.45;;
7545;SDS011;3814;51.454;12.616;2023-06-10T23:16:23;11.00;;;6.47;;
7545;SDS011;3814;51.454;12.616;2023-06-10T23:18:50;10.32;;;6.55;;
7545;SDS011;3814;51.454;12.616;2023-06-10T23:21:17;9.45;;;6.22;;
7545;SDS011;3814;51.454;12.616;2023-06-10T23:23:43;9.32;;;6.07;;
7545;SDS011;3814;51.454;12.616;2023-06-10T23:26:09;8.63;;;6.03;;
7545;SDS011;3814;51.454;12.616;2023-06-10T23:28:35;9.00;;;6.10;;
7545;SDS011;3814;51.454;12.616;2023-06-10T23:31:00;8.90;;;6.00;;
7545;SDS011;3814;51.454;12.616;2023-06-10T23:33:26;8.88;;;6.20;;
7545;SDS011;3814;51.454;12.616;2023-06-10T23:35:52;9.48;;;5.93;;
7545;SDS011;3814;51.454;12.616;2023-06-10T23:38:17;8.82;;;5.65;;
7545;SDS011;3814;51.454;12.616;2023-06-10T23:40:43;9.40;;;6.35;;
7545;SDS011;3814;51.454;12.616;2023-06-10T23:43:08;8.85;;;5.38;;
7545;SDS011;3814;51.454;12.616;2023-06-10T23:45:33;8.75;;;5.88;;
7545;SDS011;3814;51.454;12.616;2023-06-10T23:47:59;9.25;;;6.10;;
7545;SDS011;3814;51.454;12.616;2023-06-10T23:50:24;8.75;;;5.60;;
7545;SDS011;3814;51.454;12.616;2023-06-10T23:52:50;8.13;;;5.60;;
7545;SDS011;3814;51.454;12.616;2023-06-10T23:55:17;9.32;;;6.05;;
7545;SDS011;3814;51.454;12.616;2023-06-10T23:57:42;10.68;;;5.53;;
